sensor_id;sensor_type;location;lat;lon;timestamp;pressure;altitude;pressure_sealevel;temperature;humidity
35704;BME280;21820;51.112;13.762;2022-07-23T00:01:29;99519.41;;;26.20;56.67
35704;BME280;21820;51.112;13.762;2022-07-23T00:03:54;99505.25;;;26.13;57.16
35704;BME280;21820;51.112;13.762;2022-07-23T00:06:20;99525.69;;;26.19;57.28
35704;BME280;21820;51.112;13.762;2022-07-23T00:08:46;99524.03;;;26.18;57.28
35704;BME280;21820;51.112;13.762;2022-07-23T00:11:11;99513.16;;;26.21;57.46
35704;BME280;21820;51.112;13.762;2022-07-23T00:13:36;99508.69;;;26.22;57.02
35704;BME280;21820;51.112;13.762;2022-07-23T00:16:02;99509.53;;;26.22;57.28
35704;BME280;21820;51.112;13.762;2022-07-23T00:18:27;99502.63;;;26.21;57.06
35704;BME280;21820;51.112;13.762;2022-07-23T00:20:53;99503.59;;;26.20;56.82
35704;BME280;21820;51.112;13.762;2022-07-23T00:23:18;99498.97;;;26.22;57.16
35704;BME280;21820;51.112;13.762;2022-07-23T00:25:44;99513.97;;;26.22;56.90
35704;BME280;21820;51.112;13.762;2022-07-23T00:28:10;99512.31;;;26.21;56.95
35704;BME280;21820;51.112;13.762;2022-07-23T00:30:36;99501.78;;;26.21;57.05
35704;BME280;21820;51.112;13.762;2022-07-23T00:33:05;99502.63;;;26.21;57.42
35704;BME280;21820;51.112;13.762;2022-07-23T00:35:34;99494.06;;;26.19;57.40
35704;BME280;21820;51.112;13.762;2022-07-23T00:38:00;99493.72;;;26.22;56.45
35704;BME280;21820;51.112;13.762;2022-07-23T00:40:26;99493.22;;;26.19;57.33
35704;BME280;21820;51.112;13.762;2022-07-23T00:42:52;99500.97;;;26.20;56.68
35704;BME280;21820;51.112;13.762;2022-07-23T00:45:18;99500.97;;;26.20;56.92
35704;BME280;21820;51.112;13.762;2022-07-23T00:47:43;99504.25;;;26.22;57.44
35704;BME280;21820;51.112;13.762;2022-07-23T00:50:09;99496.53;;;26.21;56.62
35704;BME280;21820;51.112;13.762;2022-07-23T00:52:37;99500.97;;;26.20;56.83
35704;BME280;21820;51.112;13.762;2022-07-23T00:55:04;99495.69;;;26.20;57.10
35704;BME280;21820;51.112;13.762;2022-07-23T00:57:30;99501.78;;;26.21;57.07
35704;BME280;21820;51.112;13.762;2022-07-23T00:59:55;99498.97;;;26.22;56.87
35704;BME280;21820;51.112;13.762;2022-07-23T01:02:26;99476.44;;;26.12;56.44
35704;BME280;21820;51.112;13.762;2022-07-23T01:04:52;99485.84;;;26.14;55.92
35704;BME280;21820;51.112;13.762;2022-07-23T01:07:18;99490.41;;;26.20;56.99
35704;BME280;21820;51.112;13.762;2022-07-23T01:09:44;99484.00;;;26.23;56.80
35704;BME280;21820;51.112;13.762;2022-07-23T01:12:10;99484.78;;;26.23;57.14
35704;BME280;21820;51.112;13.762;2022-07-23T01:14:35;99484.00;;;26.23;57.07
35704;BME280;21820;51.112;13.762;2022-07-23T01:17:01;99461.94;;;26.16;56.80
35704;BME280;21820;51.112;13.762;2022-07-23T01:19:27;99475.91;;;26.24;56.82
35704;BME280;21820;51.112;13.762;2022-07-23T01:21:53;99473.28;;;26.24;56.68
35704;BME280;21820;51.112;13.762;2022-07-23T01:24:19;99453.22;;;26.15;56.97
35704;BME280;21820;51.112;13.762;2022-07-23T01:26:46;99460.09;;;26.24;57.05
35704;BME280;21820;51.112;13.762;2022-07-23T01:29:12;99461.06;;;26.23;56.42
35704;BME280;21820;51.112;13.762;2022-07-23T01:31:39;99459.28;;;26.24;57.19
35704;BME280;21820;51.112;13.762;2022-07-23T01:34:05;99435.38;;;26.25;56.22
35704;BME280;21820;51.112;13.762;2022-07-23T01:36:33;99448.56;;;26.25;56.72
35704;BME280;21820;51.112;13.762;2022-07-23T01:38:58;99440.66;;;26.25;56.90
35704;BME280;21820;51.112;13.762;2022-07-23T01:41:23;99438.84;;;26.26;56.87
35704;BME280;21820;51.112;13.762;2022-07-23T01:43:49;99425.66;;;26.26;56.59
35704;BME280;21820;51.112;13.762;2022-07-23T01:46:14;99421.19;;;26.26;56.88
35704;BME280;21820;51.112;13.762;2022-07-23T01:48:39;99412.66;;;26.24;56.49
35704;BME280;21820;51.112;13.762;2022-07-23T01:51:05;99412.66;;;26.24;56.79
35704;BME280;21820;51.112;13.762;2022-07-23T01:53:31;99409.00;;;26.25;57.04
35704;BME280;21820;51.112;13.762;2022-07-23T01:56:00;99409.00;;;26.25;57.30
35704;BME280;21820;51.112;13.762;2022-07-23T01:58:26;99387.34;;;26.15;56.83
35704;BME280;21820;51.112;13.762;2022-07-23T02:00:53;99408.53;;;26.22;56.41
35704;BME280;21820;51.112;13.762;2022-07-23T02:03:18;99411.00;;;26.23;57.24
35704;BME280;21820;51.112;13.762;2022-07-23T02:05:44;99410.03;;;26.24;57.15
35704;BME280;21820;51.112;13.762;2022-07-23T02:08:09;99409.00;;;26.25;56.83
35704;BME280;21820;51.112;13.762;2022-07-23T02:10:35;99407.38;;;26.24;56.27
35704;BME280;21820;51.112;13.762;2022-07-23T02:13:00;99405.38;;;26.26;56.69
35704;BME280;21820;51.112;13.762;2022-07-23T02:15:25;99397.47;;;26.26;56.27
35704;BME280;21820;51.112;13.762;2022-07-23T02:17:51;99401.75;;;26.27;56.84
35704;BME280;21820;51.112;13.762;2022-07-23T02:20:17;99409.66;;;26.27;56.62
35704;BME280;21820;51.112;13.762;2022-07-23T02:22:42;99401.09;;;26.25;56.65
35704;BME280;21820;51.112;13.762;2022-07-23T02:25:08;99395.53;;;26.20;56.57
35704;BME280;21820;51.112;13.762;2022-07-23T02:27:35;99392.19;;;26.26;56.39
35704;BME280;21820;51.112;13.762;2022-07-23T02:30:00;99387.94;;;26.25;56.93
35704;BME280;21820;51.112;13.762;2022-07-23T02:32:26;99391.41;;;26.26;56.39
35704;BME280;21820;51.112;13.762;2022-07-23T02:34:51;99398.47;;;26.25;56.51
35704;BME280;21820;51.112;13.762;2022-07-23T02:37:17;99396.72;;;26.18;57.04
35704;BME280;21820;51.112;13.762;2022-07-23T02:39:43;99410.81;;;26.25;56.23
35704;BME280;21820;51.112;13.762;2022-07-23T02:42:08;99403.75;;;26.25;56.51
35704;BME280;21820;51.112;13.762;2022-07-23T02:44:34;99406.19;;;26.27;56.47
35704;BME280;21820;51.112;13.762;2022-07-23T02:46:59;99394.81;;;26.26;56.72
35704;BME280;21820;51.112;13.762;2022-07-23T02:49:25;99392.19;;;26.26;56.29
35704;BME280;21820;51.112;13.762;2022-07-23T02:51:50;99385.94;;;26.27;56.56
35704;BME280;21820;51.112;13.762;2022-07-23T02:54:16;99376.22;;;26.28;56.50
35704;BME280;21820;51.112;13.762;2022-07-23T02:56:42;99366.84;;;26.25;56.69
35704;BME280;21820;51.112;13.762;2022-07-23T02:59:07;99364.88;;;26.27;56.64
35704;BME280;21820;51.112;13.762;2022-07-23T03:01:33;99362.22;;;26.27;56.41
35704;BME280;21820;51.112;13.762;2022-07-23T03:03:59;99365.84;;;26.26;57.09
35704;BME280;21820;51.112;13.762;2022-07-23T03:06:24;99356.66;;;26.22;56.72
35704;BME280;21820;51.112;13.762;2022-07-23T03:08:49;99382.31;;;26.28;56.21
35704;BME280;21820;51.112;13.762;2022-07-23T03:11:15;99378.69;;;26.29;56.36
35704;BME280;21820;51.112;13.762;2022-07-23T03:13:41;99381.66;;;26.26;56.27
35704;BME280;21820;51.112;13.762;2022-07-23T03:16:06;99377.22;;;26.27;56.89
35704;BME280;21820;51.112;13.762;2022-07-23T03:18:32;99380.84;;;26.26;57.04
35704;BME280;21820;51.112;13.762;2022-07-23T03:20:58;99378.03;;;26.27;56.10
35704;BME280;21820;51.112;13.762;2022-07-23T03:23:23;99375.41;;;26.27;56.64
35704;BME280;21820;51.112;13.762;2022-07-23T03:25:48;99362.28;;;26.19;56.78
35704;BME280;21820;51.112;13.762;2022-07-23T03:28:17;99369.94;;;26.29;57.37
35704;BME280;21820;51.112;13.762;2022-07-23T03:30:44;99373.41;;;26.29;56.37
35704;BME280;21820;51.112;13.762;2022-07-23T03:33:15;99366.13;;;26.31;55.99
35704;BME280;21820;51.112;13.762;2022-07-23T03:35:42;99363.84;;;26.28;56.15
35704;BME280;21820;51.112;13.762;2022-07-23T03:38:07;99361.22;;;26.28;56.73
35704;BME280;21820;51.112;13.762;2022-07-23T03:40:32;99337.56;;;26.20;56.58
35704;BME280;21820;51.112;13.762;2022-07-23T03:42:58;99351.69;;;26.27;55.94
35704;BME280;21820;51.112;13.762;2022-07-23T03:45:23;99338.88;;;26.24;56.21
35704;BME280;21820;51.112;13.762;2022-07-23T03:47:48;99352.34;;;26.29;56.23
35704;BME280;21820;51.112;13.762;2022-07-23T03:50:14;99364.50;;;26.30;56.98
35704;BME280;21820;51.112;13.762;2022-07-23T03:52:39;99355.94;;;26.28;56.68
35704;BME280;21820;51.112;13.762;2022-07-23T03:55:05;99354.31;;;26.27;56.79
35704;BME280;21820;51.112;13.762;2022-07-23T03:57:31;99357.59;;;26.29;56.07
35704;BME280;21820;51.112;13.762;2022-07-23T03:59:57;99353.50;;;26.27;56.20
35704;BME280;21820;51.112;13.762;2022-07-23T04:02:22;99337.38;;;26.22;56.42
35704;BME280;21820;51.112;13.762;2022-07-23T04:04:48;99355.16;;;26.28;56.64
35704;BME280;21820;51.112;13.762;2022-07-23T04:07:14;99340.19;;;26.20;56.81
35704;BME280;21820;51.112;13.762;2022-07-23T04:09:40;99360.41;;;26.28;56.56
35704;BME280;21820;51.112;13.762;2022-07-23T04:12:06;99362.22;;;26.27;56.81
35704;BME280;21820;51.112;13.762;2022-07-23T04:14:32;99351.56;;;26.21;57.13
35704;BME280;21820;51.112;13.762;2022-07-23T04:16:57;99365.03;;;26.26;56.81
35704;BME280;21820;51.112;13.762;2022-07-23T04:19:23;99361.56;;;26.25;56.36
35704;BME280;21820;51.112;13.762;2022-07-23T04:21:48;99362.22;;;26.27;57.11
35704;BME280;21820;51.112;13.762;2022-07-23T04:24:14;99366.50;;;26.28;57.26
35704;BME280;21820;51.112;13.762;2022-07-23T04:26:39;99369.78;;;26.30;56.06
35704;BME280;21820;51.112;13.762;2022-07-23T04:29:04;99349.75;;;26.21;56.62
35704;BME280;21820;51.112;13.762;2022-07-23T04:31:30;99355.28;;;26.26;57.05
35704;BME280;21820;51.112;13.762;2022-07-23T04:33:55;99360.56;;;26.26;56.58
35704;BME280;21820;51.112;13.762;2022-07-23T04:36:20;99364.88;;;26.27;57.21
35704;BME280;21820;51.112;13.762;2022-07-23T04:38:46;99370.97;;;26.28;56.88
35704;BME280;21820;51.112;13.762;2022-07-23T04:41:11;99376.22;;;26.28;56.38
35704;BME280;21820;51.112;13.762;2022-07-23T04:43:36;99364.75;;;26.21;56.62
35704;BME280;21820;51.112;13.762;2022-07-23T04:46:02;99363.19;;;26.26;57.11
35704;BME280;21820;51.112;13.762;2022-07-23T04:48:27;99354.31;;;26.27;56.60
35704;BME280;21820;51.112;13.762;2022-07-23T04:50:53;99348.22;;;26.27;56.60
35704;BME280;21820;51.112;13.762;2022-07-23T04:53:18;99357.94;;;26.26;56.56
35704;BME280;21820;51.112;13.762;2022-07-23T04:55:45;99369.13;;;26.28;56.16
35704;BME280;21820;51.112;13.762;2022-07-23T04:58:10;99349.03;;;26.27;56.72
35704;BME280;21820;51.112;13.762;2022-07-23T05:00:36;99356.97;;;26.27;56.49
35704;BME280;21820;51.112;13.762;2022-07-23T05:03:01;99356.97;;;26.27;55.91
35704;BME280;21820;51.112;13.762;2022-07-23T05:05:26;99354.31;;;26.27;56.92
35704;BME280;21820;51.112;13.762;2022-07-23T05:07:52;99347.06;;;26.29;56.46
35704;BME280;21820;51.112;13.762;2022-07-23T05:10:17;99347.38;;;26.26;56.64
35704;BME280;21820;51.112;13.762;2022-07-23T05:12:42;99355.28;;;26.26;57.09
35704;BME280;21820;51.112;13.762;2022-07-23T05:15:08;99360.56;;;26.26;56.49
35704;BME280;21820;51.112;13.762;2022-07-23T05:17:33;99353.31;;;26.28;56.94
35704;BME280;21820;51.112;13.762;2022-07-23T05:19:59;99367.31;;;26.29;56.13
35704;BME280;21820;51.112;13.762;2022-07-23T05:22:24;99378.88;;;26.28;56.02
35704;BME280;21820;51.112;13.762;2022-07-23T05:24:49;99377.88;;;26.29;56.70
35704;BME280;21820;51.112;13.762;2022-07-23T05:27:15;99387.56;;;26.28;56.57
35704;BME280;21820;51.112;13.762;2022-07-23T05:29:40;99387.56;;;26.28;56.85
35704;BME280;21820;51.112;13.762;2022-07-23T05:32:05;99378.03;;;26.27;56.83
35704;BME280;21820;51.112;13.762;2022-07-23T05:34:31;99380.69;;;26.27;56.65
35704;BME280;21820;51.112;13.762;2022-07-23T05:36:56;99379.66;;;26.28;56.50
35704;BME280;21820;51.112;13.762;2022-07-23T05:39:22;99375.22;;;26.29;56.61
35704;BME280;21820;51.112;13.762;2022-07-23T05:41:47;99392.84;;;26.28;56.33
35704;BME280;21820;51.112;13.762;2022-07-23T05:44:12;99407.03;;;26.27;56.96
35704;BME280;21820;51.112;13.762;2022-07-23T05:46:38;99423.69;;;26.28;56.73
35704;BME280;21820;51.112;13.762;2022-07-23T05:49:03;99445.56;;;26.28;56.09
35704;BME280;21820;51.112;13.762;2022-07-23T05:51:29;99437.72;;;26.20;56.12
35704;BME280;21820;51.112;13.762;2022-07-23T05:53:54;99451.66;;;26.29;56.25
35704;BME280;21820;51.112;13.762;2022-07-23T05:56:19;99443.94;;;26.27;57.00
35704;BME280;21820;51.112;13.762;2022-07-23T05:58:45;99429.75;;;26.28;56.79
35704;BME280;21820;51.112;13.762;2022-07-23T06:01:10;99434.22;;;26.28;56.61
35704;BME280;21820;51.112;13.762;2022-07-23T06:03:37;99445.56;;;26.28;56.08
35704;BME280;21820;51.112;13.762;2022-07-23T06:06:03;99464.66;;;26.30;56.18
35704;BME280;21820;51.112;13.762;2022-07-23T06:08:28;99468.13;;;26.31;56.68
35704;BME280;21820;51.112;13.762;2022-07-23T06:10:54;99475.22;;;26.30;55.80
35704;BME280;21820;51.112;13.762;2022-07-23T06:13:19;99464.06;;;26.20;56.32
35704;BME280;21820;51.112;13.762;2022-07-23T06:15:44;99471.13;;;26.28;56.73
35704;BME280;21820;51.112;13.762;2022-07-23T06:18:10;99456.16;;;26.20;56.46
35704;BME280;21820;51.112;13.762;2022-07-23T06:20:35;99475.56;;;26.27;56.80
35704;BME280;21820;51.112;13.762;2022-07-23T06:23:01;99486.09;;;26.27;56.62
35704;BME280;21820;51.112;13.762;2022-07-23T06:25:26;99496.66;;;26.27;56.71
35704;BME280;21820;51.112;13.762;2022-07-23T06:27:51;99493.00;;;26.28;56.60
35704;BME280;21820;51.112;13.762;2022-07-23T06:30:17;99498.28;;;26.28;56.60
35704;BME280;21820;51.112;13.762;2022-07-23T06:32:44;99489.44;;;26.21;56.63
35704;BME280;21820;51.112;13.762;2022-07-23T06:35:10;99496.66;;;26.27;56.26
35704;BME280;21820;51.112;13.762;2022-07-23T06:37:35;99500.25;;;26.26;56.29
35704;BME280;21820;51.112;13.762;2022-07-23T06:40:01;99507.19;;;26.27;55.95
35704;BME280;21820;51.112;13.762;2022-07-23T06:42:26;99506.38;;;26.27;56.95
35704;BME280;21820;51.112;13.762;2022-07-23T06:44:51;99507.84;;;26.29;55.84
35704;BME280;21820;51.112;13.762;2022-07-23T06:47:17;99502.75;;;26.28;56.60
35704;BME280;21820;51.112;13.762;2022-07-23T06:49:42;99491.38;;;26.27;57.46
35704;BME280;21820;51.112;13.762;2022-07-23T06:52:08;99498.28;;;26.28;56.29
35704;BME280;21820;51.112;13.762;2022-07-23T06:54:34;99501.91;;;26.27;57.23
35704;BME280;21820;51.112;13.762;2022-07-23T06:57:00;99496.66;;;26.27;56.28
35704;BME280;21820;51.112;13.762;2022-07-23T06:59:25;99493.00;;;26.28;56.22
35704;BME280;21820;51.112;13.762;2022-07-23T07:01:50;99480.88;;;26.19;56.77
35704;BME280;21820;51.112;13.762;2022-07-23T07:04:16;99484.44;;;26.26;56.29
35704;BME280;21820;51.112;13.762;2022-07-23T07:06:41;99480.84;;;26.27;56.76
35704;BME280;21820;51.112;13.762;2022-07-23T07:09:06;99473.78;;;26.20;56.21
35704;BME280;21820;51.112;13.762;2022-07-23T07:11:32;99491.38;;;26.27;56.37
35704;BME280;21820;51.112;13.762;2022-07-23T07:13:57;99462.38;;;26.27;56.37
35704;BME280;21820;51.112;13.762;2022-07-23T07:16:23;99458.91;;;26.27;56.13
35704;BME280;21820;51.112;13.762;2022-07-23T07:18:48;99463.34;;;26.26;56.33
35704;BME280;21820;51.112;13.762;2022-07-23T07:21:14;99468.63;;;26.26;55.96
35704;BME280;21820;51.112;13.762;2022-07-23T07:23:40;99460.72;;;26.26;56.19
35704;BME280;21820;51.112;13.762;2022-07-23T07:26:05;99465.06;;;26.19;55.84
35704;BME280;21820;51.112;13.762;2022-07-23T07:28:30;99475.91;;;26.24;56.17
35704;BME280;21820;51.112;13.762;2022-07-23T07:30:56;99455.19;;;26.21;56.86
35704;BME280;21820;51.112;13.762;2022-07-23T07:33:21;99474.38;;;26.30;56.04
35704;BME280;21820;51.112;13.762;2022-07-23T07:35:47;99479.66;;;26.30;56.44
35704;BME280;21820;51.112;13.762;2022-07-23T07:38:12;99482.47;;;26.28;57.15
35704;BME280;21820;51.112;13.762;2022-07-23T07:40:38;99480.00;;;26.27;55.81
35704;BME280;21820;51.112;13.762;2022-07-23T07:43:03;99469.47;;;26.27;56.13
35704;BME280;21820;51.112;13.762;2022-07-23T07:45:29;99472.94;;;26.27;56.17
35704;BME280;21820;51.112;13.762;2022-07-23T07:47:54;99490.53;;;26.27;56.11
35704;BME280;21820;51.112;13.762;2022-07-23T07:50:20;99472.16;;;26.19;56.59
35704;BME280;21820;51.112;13.762;2022-07-23T07:52:45;99484.44;;;26.26;56.46
35704;BME280;21820;51.112;13.762;2022-07-23T07:55:11;99488.75;;;26.27;56.11
35704;BME280;21820;51.112;13.762;2022-07-23T07:57:37;99497.81;;;26.25;55.87
35704;BME280;21820;51.112;13.762;2022-07-23T08:00:04;99486.09;;;26.27;56.07
35704;BME280;21820;51.112;13.762;2022-07-23T08:02:39;99477.19;;;26.28;57.51
35704;BME280;21820;51.112;13.762;2022-07-23T08:05:05;99468.63;;;26.26;56.03
35704;BME280;21820;51.112;13.762;2022-07-23T08:07:30;99460.59;;;26.28;56.28
35704;BME280;21820;51.112;13.762;2022-07-23T08:09:56;99461.38;;;26.28;56.38
35704;BME280;21820;51.112;13.762;2022-07-23T08:12:21;99468.63;;;26.26;55.99
35704;BME280;21820;51.112;13.762;2022-07-23T08:14:47;99468.63;;;26.26;56.32
35704;BME280;21820;51.112;13.762;2022-07-23T08:17:12;99463.34;;;26.26;56.04
35704;BME280;21820;51.112;13.762;2022-07-23T08:19:37;99459.75;;;26.27;56.24
35704;BME280;21820;51.112;13.762;2022-07-23T08:22:03;99458.09;;;26.26;56.51
35704;BME280;21820;51.112;13.762;2022-07-23T08:24:28;99451.00;;;26.27;56.10
35704;BME280;21820;51.112;13.762;2022-07-23T08:26:53;99445.91;;;26.25;55.85
35704;BME280;21820;51.112;13.762;2022-07-23T08:29:19;99446.75;;;26.26;56.35
35704;BME280;21820;51.112;13.762;2022-07-23T08:31:44;99459.75;;;26.27;56.37
35704;BME280;21820;51.112;13.762;2022-07-23T08:34:10;99452.00;;;26.26;55.77
35704;BME280;21820;51.112;13.762;2022-07-23T08:36:36;99460.72;;;26.26;56.67
35704;BME280;21820;51.112;13.762;2022-07-23T08:39:02;99453.81;;;26.25;56.74
35704;BME280;21820;51.112;13.762;2022-07-23T08:41:28;99447.84;;;26.31;58.89
35704;BME280;21820;51.112;13.762;2022-07-23T08:43:54;99447.41;;;26.28;56.41
35704;BME280;21820;51.112;13.762;2022-07-23T08:46:20;99458.91;;;26.27;55.91
35704;BME280;21820;51.112;13.762;2022-07-23T08:48:47;99457.59;;;26.31;59.14
35704;BME280;21820;51.112;13.762;2022-07-23T08:51:13;99453.81;;;26.25;56.26
35704;BME280;21820;51.112;13.762;2022-07-23T08:53:39;99457.28;;;26.26;56.24
35704;BME280;21820;51.112;13.762;2022-07-23T08:56:06;99453.81;;;26.25;56.75
35704;BME280;21820;51.112;13.762;2022-07-23T08:58:32;99459.09;;;26.25;56.71
35704;BME280;21820;51.112;13.762;2022-07-23T09:00:58;99461.72;;;26.25;57.57
35704;BME280;21820;51.112;13.762;2022-07-23T09:03:25;99468.81;;;26.25;56.40
35704;BME280;21820;51.112;13.762;2022-07-23T09:05:53;99473.44;;;26.23;56.60
35704;BME280;21820;51.112;13.762;2022-07-23T09:08:19;99472.28;;;26.25;56.26
35704;BME280;21820;51.112;13.762;2022-07-23T09:10:57;99464.88;;;26.21;58.45
35704;BME280;21820;51.112;13.762;2022-07-23T09:13:31;99475.91;;;26.24;57.65
35704;BME280;21820;51.112;13.762;2022-07-23T09:16:00;99480.34;;;26.24;57.24
35704;BME280;21820;51.112;13.762;2022-07-23T09:18:35;99485.63;;;26.24;58.17
35704;BME280;21820;51.112;13.762;2022-07-23T09:24:01;99484.78;;;26.23;58.86
35704;BME280;21820;51.112;13.762;2022-07-23T09:26:35;99476.88;;;26.23;57.40
35704;BME280;21820;51.112;13.762;2022-07-23T09:31:32;99490.06;;;26.23;57.21
35704;BME280;21820;51.112;13.762;2022-07-23T09:34:25;99476.72;;;26.25;59.27
35704;BME280;21820;51.112;13.762;2022-07-23T09:36:56;99478.72;;;26.23;56.34
35704;BME280;21820;51.112;13.762;2022-07-23T09:39:32;99470.81;;;26.23;58.46
35704;BME280;21820;51.112;13.762;2022-07-23T09:44:44;99469.03;;;26.15;57.44
35704;BME280;21820;51.112;13.762;2022-07-23T09:47:10;99481.84;;;26.18;56.75
35704;BME280;21820;51.112;13.762;2022-07-23T09:49:35;99502.28;;;26.24;56.03
35704;BME280;21820;51.112;13.762;2022-07-23T09:52:01;99488.31;;;26.16;56.16
35704;BME280;21820;51.112;13.762;2022-07-23T09:54:34;99511.97;;;26.24;57.89
35704;BME280;21820;51.112;13.762;2022-07-23T09:59:34;99505.09;;;26.23;56.74
35704;BME280;21820;51.112;13.762;2022-07-23T10:02:01;99511.97;;;26.24;56.61
35704;BME280;21820;51.112;13.762;2022-07-23T10:04:28;99501.63;;;26.22;56.51
35704;BME280;21820;51.112;13.762;2022-07-23T10:06:58;99497.00;;;26.24;56.46
35704;BME280;21820;51.112;13.762;2022-07-23T10:09:32;99498.63;;;26.25;57.98
35704;BME280;21820;51.112;13.762;2022-07-23T10:12:00;99505.88;;;26.23;57.01
35704;BME280;21820;51.112;13.762;2022-07-23T10:14:44;99517.59;;;26.21;56.07
35704;BME280;21820;51.112;13.762;2022-07-23T10:17:10;99513.16;;;26.21;56.40
35704;BME280;21820;51.112;13.762;2022-07-23T10:19:36;99514.78;;;26.22;57.00
35704;BME280;21820;51.112;13.762;2022-07-23T10:24:58;99504.28;;;26.14;58.75
35704;BME280;21820;51.112;13.762;2022-07-23T10:30:39;99522.53;;;26.24;58.45
35704;BME280;21820;51.112;13.762;2022-07-23T10:33:17;99534.88;;;26.23;58.17
35704;BME280;21820;51.112;13.762;2022-07-23T10:35:48;99529.94;;;26.20;56.86
35704;BME280;21820;51.112;13.762;2022-07-23T10:38:27;99542.28;;;26.20;58.84
35704;BME280;21820;51.112;13.762;2022-07-23T10:41:00;99533.75;;;26.18;58.38
35704;BME280;21820;51.112;13.762;2022-07-23T10:43:27;99532.75;;;26.19;56.34
35704;BME280;21820;51.112;13.762;2022-07-23T10:45:53;99533.41;;;26.21;56.68
35704;BME280;21820;51.112;13.762;2022-07-23T10:48:20;99544.78;;;26.21;57.56
35704;BME280;21820;51.112;13.762;2022-07-23T10:59:21;99545.59;;;26.22;56.46
35704;BME280;21820;51.112;13.762;2022-07-23T11:01:46;99548.41;;;26.20;56.85
35704;BME280;21820;51.112;13.762;2022-07-23T11:04:12;99548.41;;;26.20;56.27
35704;BME280;21820;51.112;13.762;2022-07-23T11:09:41;99562.56;;;26.19;58.60
35704;BME280;21820;51.112;13.762;2022-07-23T11:15:13;99541.50;;;26.19;59.47
35704;BME280;21820;51.112;13.762;2022-07-23T11:17:59;99544.78;;;26.21;58.81
35704;BME280;21820;51.112;13.762;2022-07-23T11:20:26;99543.97;;;26.21;56.91
35704;BME280;21820;51.112;13.762;2022-07-23T11:22:54;99548.41;;;26.20;57.95
35704;BME280;21820;51.112;13.762;2022-07-23T11:27:55;99563.25;;;26.21;56.75
35704;BME280;21820;51.112;13.762;2022-07-23T11:35:33;99566.66;;;26.22;56.62
35704;BME280;21820;51.112;13.762;2022-07-23T11:38:14;99565.88;;;26.21;58.71
35704;BME280;21820;51.112;13.762;2022-07-23T11:40:40;99572.28;;;26.19;56.64
35704;BME280;21820;51.112;13.762;2022-07-23T11:43:08;99569.47;;;26.20;57.17
35704;BME280;21820;51.112;13.762;2022-07-23T11:48:03;99572.78;;;26.22;57.01
35704;BME280;21820;51.112;13.762;2022-07-23T11:50:29;99569.13;;;26.23;57.15
35704;BME280;21820;51.112;13.762;2022-07-23T11:52:55;99549.88;;;26.15;56.42
35704;BME280;21820;51.112;13.762;2022-07-23T11:55:21;99556.97;;;26.22;57.27
35704;BME280;21820;51.112;13.762;2022-07-23T11:57:47;99561.41;;;26.22;56.94
35704;BME280;21820;51.112;13.762;2022-07-23T12:00:17;99568.50;;;26.21;58.71
35704;BME280;21820;51.112;13.762;2022-07-23T12:02:46;99571.47;;;26.18;56.88
35704;BME280;21820;51.112;13.762;2022-07-23T12:05:13;99583.66;;;26.19;57.03
35704;BME280;21820;51.112;13.762;2022-07-23T12:07:42;99584.63;;;26.18;57.52
35704;BME280;21820;51.112;13.762;2022-07-23T12:10:15;99583.00;;;26.17;58.43
35704;BME280;21820;51.112;13.762;2022-07-23T12:12:49;99580.03;;;26.20;58.85
35704;BME280;21820;51.112;13.762;2022-07-23T12:15:16;99559.97;;;26.11;57.48
35704;BME280;21820;51.112;13.762;2022-07-23T12:17:44;99578.56;;;26.18;57.27
35704;BME280;21820;51.112;13.762;2022-07-23T12:20:13;99573.13;;;26.19;57.47
35704;BME280;21820;51.112;13.762;2022-07-23T12:22:41;99574.75;;;26.20;57.24
35704;BME280;21820;51.112;13.762;2022-07-23T12:25:16;99580.84;;;26.21;59.09
35704;BME280;21820;51.112;13.762;2022-07-23T12:27:43;99576.41;;;26.21;56.79
35704;BME280;21820;51.112;13.762;2022-07-23T12:30:27;99584.94;;;26.23;58.80
35704;BME280;21820;51.112;13.762;2022-07-23T12:32:55;99554.34;;;26.14;57.35
35704;BME280;21820;51.112;13.762;2022-07-23T12:35:21;99566.50;;;26.23;56.77
35704;BME280;21820;51.112;13.762;2022-07-23T12:37:49;99576.06;;;26.24;56.86
35704;BME280;21820;51.112;13.762;2022-07-23T12:40:29;99576.06;;;26.24;59.16
35704;BME280;21820;51.112;13.762;2022-07-23T12:43:04;99590.41;;;26.22;57.95
35704;BME280;21820;51.112;13.762;2022-07-23T12:50:59;99578.72;;;26.24;58.57
35704;BME280;21820;51.112;13.762;2022-07-23T12:53:36;99570.81;;;26.24;58.81
35704;BME280;21820;51.112;13.762;2022-07-23T12:56:14;99570.44;;;26.27;58.94
35704;BME280;21820;51.112;13.762;2022-07-23T13:01:08;99582.63;;;26.28;56.78
35704;BME280;21820;51.112;13.762;2022-07-23T13:03:38;99581.00;;;26.27;57.79
35704;BME280;21820;51.112;13.762;2022-07-23T13:06:06;99580.00;;;26.28;57.51
35704;BME280;21820;51.112;13.762;2022-07-23T13:08:33;99579.34;;;26.26;56.97
35704;BME280;21820;51.112;13.762;2022-07-23T13:10:59;99587.25;;;26.26;56.32
35704;BME280;21820;51.112;13.762;2022-07-23T13:13:27;99580.16;;;26.27;58.12
35704;BME280;21820;51.112;13.762;2022-07-23T13:15:54;99584.59;;;26.26;57.60
35704;BME280;21820;51.112;13.762;2022-07-23T13:18:20;99580.81;;;26.29;57.09
35704;BME280;21820;51.112;13.762;2022-07-23T13:20:46;99577.34;;;26.28;56.60
35704;BME280;21820;51.112;13.762;2022-07-23T13:23:12;99580.31;;;26.33;59.63
35704;BME280;21820;51.112;13.762;2022-07-23T13:25:38;99580.66;;;26.30;57.68
35704;BME280;21820;51.112;13.762;2022-07-23T13:28:03;99589.56;;;26.29;56.91
35704;BME280;21820;51.112;13.762;2022-07-23T13:30:29;99581.00;;;26.27;56.93
35704;BME280;21820;51.112;13.762;2022-07-23T13:32:54;99586.28;;;26.27;57.34
35704;BME280;21820;51.112;13.762;2022-07-23T13:35:20;99587.91;;;26.28;57.52
35704;BME280;21820;51.112;13.762;2022-07-23T13:37:45;99571.59;;;26.25;57.42